Custom Search

Airport METAR Reports

 

YMAV - Avalon Airport, Australia
Distance from station: 0 0km
Updated: 25/02/2017 17:30
Clear
Clear
 Wind from S
Wind: S 31 km/h
Temperature: 19°C
Dew Point: 10°C
Humidity: 56%
Barometer: 1022 hPa
Clouds: Clear
Visibility: 10 km
2017/02/25 06:30 YMAV 250630Z AUTO 19017KT 9999 // NCD 19/10 Q1022 RF00.0/000.0
YMML - Melbourne Intl A, Australia
Distance from station: NE 50km
Updated: 25/02/2017 17:30
Few Clouds
Few Clouds
 Wind from S
Wind: S 26 km/h
Temperature: 20°C
Dew Point: 7°C
Humidity: 43%
Barometer: 1021 hPa
Clouds: Few Clouds
Visibility: 10 km
Cloud details: Few Clouds 1067 m
2017/02/25 06:30 YMML 250630Z 18014KT 9999 FEW035 20/07 Q1021 NOSIG
YMEN - Melbourne/Essend, Australia
Distance from station: NE 51km
Updated: 25/02/2017 17:00
Clear
Clear
 Wind from S
Wind: S 24 km/h
Temperature: 20°C
Dew Point: 7°C
Humidity: 43%
Barometer: 1021 hPa
Clouds: Clear
Visibility: 10 km
2017/02/25 06:00 YMEN 250600Z AUTO 19013KT 9999 // NCD 20/07 Q1021
 
YWGT - Wangaratta Arp, Australia
Distance from station: NE 241km
Updated: 25/02/2017 17:00
Clear
Clear
 Wind from SW
Wind: SW 11 km/h
Temperature: 29°C
Dew Point: 9°C
Humidity: 29%
Barometer: 1015 hPa
Clouds: Clear
Visibility: 10 km
2017/02/25 06:00 YWGT 250600Z AUTO 23006KT 160V320 9999 // NCD 29/09 Q1015
YMAY - Albury Airport, Australia
Distance from station: NE 308km
Updated: 25/02/2017 17:00
Clear
Clear
 Wind from SE
Wind: SE 11 km/h
Temperature: 29°C
Dew Point: 10°C
Humidity: 31%
Barometer: 1015 hPa
Clouds: Clear
Visibility: 10 km
2017/02/25 06:00 YMAY 250600Z AUTO 13006KT 9999 // NCD 29/10 Q1015
YMTG - Mount Gambier, Australia
Distance from station: W 326km
Updated: 25/02/2017 17:00
Clear
Clear
 Wind from SSE
Wind: SSE 31 km/h
Temperature: 19°C
Dew Point: 7°C
Humidity: 46%
Barometer: 1024 hPa
Clouds: Clear
Visibility: 10 km
2017/02/25 06:00 YMTG 250600Z AUTO 16017KT 9999 // NCD 19/07 Q1024
 
YNAR - Narrandera, Australia
Distance from station: NNE 413km
Updated: 25/02/2017 17:00

 Wind from SSW
Wind: SSW 15 km/h
Temperature: 32°C
Dew Point: 9°C
Humidity: 24%
Barometer: 1014 hPa
2017/02/25 06:00 YNAR 250600Z AUTO 20008KT //// // ////// 32/09 Q1014
YSWG - Wagga Wagga(Cv/M, Australia
Distance from station: NE 418km
Updated: 25/02/2017 17:00
Clear
Clear
 Wind from NNE
Wind: NNE 13 km/h
Temperature: 30°C
Dew Point: 9°C
Humidity: 27%
Barometer: 1015 hPa
Clouds: Clear
Visibility: 10 km
2017/02/25 06:00 YSWG 250600Z AUTO 02007KT 9999 // NCD 30/09 Q1015
YCOM - Cooma Snowy Mtns, Australia
Distance from station: ENE 441km
Updated: 25/02/2017 17:00
Overcast
Overcast
 Wind from ENE
Wind: ENE 22 km/h
Temperature: 16°C
Dew Point: 10°C
Humidity: 68%
Barometer: 1022 hPa
Clouds: Overcast
Visibility: 10 km
Cloud details: Overcast 914 m
2017/02/25 06:00 YCOM 250600Z AUTO 06012KT 9999 // OVC030 16/10 Q1022
 
YGTH - Griffith Arpt, Australia
Distance from station: NNE 444km
Updated: 25/02/2017 17:00
Clear
Clear
 Wind from SW
Wind: SW 20 km/h
Temperature: 31°C
Dew Point: 7°C
Humidity: 22%
Barometer: 1014 hPa
Clouds: Clear
Visibility: 10 km
2017/02/25 06:00 YGTH 250600Z AUTO 23011KT 9999 // NCD 31/07 Q1014
YMLT - Launceston Airpo, Australia
Distance from station: SSE 451km
Updated: 25/02/2017 17:30
Overcast
Overcast
 Wind from N
Wind: N 19 km/h
Temperature: 20°C
Dew Point: 5°C
Humidity: 38%
Barometer: 1023 hPa
Clouds: Overcast
Visibility: 10 km
Cloud details: Overcast 2073 m
2017/02/25 06:30 YMLT 250630Z AUTO 35010KT 9999 // OVC068 20/05 Q1023 RF00.0/000.0
YMIA - Mildura Arpt, Australia
Distance from station: NNW 474km
Updated: 25/02/2017 17:00
Clear
Clear
 Wind from S
Wind: S 20 km/h
Temperature: 27°C
Dew Point: 1°C
Humidity: 18%
Barometer: 1018 hPa
Clouds: Clear
Visibility: 10 km
2017/02/25 06:00 YMIA 250600Z AUTO 17011KT 9999 // NCD 27/01 Q1018
 
YMER - Merimbula Arpt, Australia
Distance from station: ENE 494km
Updated: 25/02/2017 17:00
Overcast
Overcast
 Wind from calm
Wind: Calm
Temperature: 18°C
Dew Point: 14°C
Humidity: 78%
Barometer: 1022 hPa
Clouds: Overcast
Cloud details: Partly cloudy 579 m
Partly cloudy 823 m
Overcast 1189 m
2017/02/25 06:00 YMER 250600Z AUTO 00000KT //// // SCT019 SCT027 OVC039 18/14 Q1022
YSCB - Canberra (civ/Mi, Australia
Distance from station: NE 518km
Updated: 25/02/2017 17:30
Partly cloudy
Partly cloudy
 Wind from SE
Wind: SE 20 km/h
Temperature: 20°C
Dew Point: 10°C
Humidity: 53%
Barometer: 1020 hPa
Clouds: Partly cloudy
Visibility: 10 km
Cloud details: Partly cloudy 1372 m
2017/02/25 06:30 YSCB 250630Z 13011KT 9999 SCT045 20/10 Q1020 NOSIG RMK USE TAF FOR ARRIVALS AFTER 0700Z
YMHB - Hobart/Tasmania, Australia
Distance from station: SSE 590km
Updated: 25/02/2017 17:30
Few Clouds
Few Clouds
 Wind from SSE
Wind: SSE 26 km/h
Temperature: 16°C
Dew Point: 6°C
Humidity: 52%
Barometer: 1025 hPa
Clouds: Few Clouds
Visibility: 10 km
Cloud details: Few Clouds 1372 m
2017/02/25 06:30 YMHB 250630Z 16014KT 9999 FEW045 16/06 Q1025